Worthington, MN

9:28 PM CDT on April 23, 2017 (GMT -0500)
Worthington Municipal

Weather History for KOTG - March, 2012

Change the Weather History Date:

Monday, March 5, 2012

  Actual Average Record
Temperature  
Mean Temperature 22 °F -  
Max Temperature 37 °F 26 °F 61 °F (1991)
Min Temperature 8 °F 13 °F -11 °F (2015)
Degree Days  
Heating Degree Days 42    
Moisture  
Dew Point 18 °F    
Average Humidity 78    
Maximum Humidity 92    
Minimum Humidity 65    
Precipitation  
Precipitation 0.00 in - - ()
Sea Level Pressure  
Sea Level Pressure 30.03 in    
Wind  
Wind Speed 12 mph (SSW)    
Max Wind Speed 28 mph    
Max Gust Speed 36 mph    
Visibility 7 miles    
Events      
Averages and records for this station are not official NWS values.
T = Trace of Precipitation, MM = Missing Value Source: NWS Daily Summary

Daily Weather History Graph

Daily Weather History Graph

Search for Another Location

Airport or City:

Trip Planner

Search our weather history database for the weather conditions in past years. The results will help you decide how hot, cold, wet, or windy it might be!

Date:

Astronomy

Mar. 05, 2012 Rise Set
Actual Time 6:51 AM CST 6:16 PM CST
Civil Twilight 6:22 AM CST 6:45 PM CST
Nautical Twilight 5:49 AM CST 7:18 PM CST
Astronomical Twilight 5:16 AM CST 7:52 PM CST
Moon 3:32 PM CST (3/5) 4:55 AM CST (3/5)
Length of Visible Light 12h 22m
Length of Day
11h 25m
Waxing Gibbous, 91% of the Moon is Illuminated
Mar 5
Waxing Gibbous
Mar 8
Full
Mar 14
Last Quarter
Mar 22
New
Mar 30
First Quarter

Hourly Weather History & Observations

Time (CST) Temp. Windchill Dew Point Humidity Pressure Visibility Wind Dir Wind Speed Gust Speed Precip Events Conditions
12:15 AM 10.4 °F - 5.0 °F 79% 30.09 in 8.0 mi North - - N/A   Clear
12:35 AM 8.6 °F - 5.0 °F 85% 30.09 in 7.0 mi North - - N/A   Clear
12:55 AM 8.6 °F -4.7 °F 6.8 °F 92% 30.10 in 8.0 mi West 9.2 mph - N/A   Clear
1:15 AM 10.4 °F 0.8 °F 6.8 °F 85% 30.10 in 8.0 mi West 5.8 mph - N/A   Clear
1:35 AM 12.2 °F 1.7 °F 8.6 °F 85% 30.12 in 9.0 mi West 6.9 mph - N/A   Clear
1:55 AM 15.8 °F 3.4 °F 10.4 °F 79% 30.12 in 7.0 mi West 10.4 mph - N/A   Clear
2:15 AM 14.0 °F 2.0 °F 10.4 °F 86% 30.12 in 6.0 mi WSW 9.2 mph - N/A   Clear
2:35 AM 12.2 °F 0.7 °F 6.8 °F 79% 30.12 in 5.0 mi WSW 8.1 mph - N/A   Clear
2:55 AM 12.2 °F 2.9 °F 8.6 °F 85% 30.12 in 4.0 mi WSW 5.8 mph - N/A   Clear
3:15 AM 10.4 °F -0.4 °F 6.8 °F 85% 30.12 in 3.0 mi WSW 6.9 mph - N/A   Clear
3:35 AM 14.0 °F 3.9 °F 8.6 °F 79% 30.12 in 3.0 mi WSW 6.9 mph - N/A   Clear
3:55 AM 12.2 °F 2.9 °F 6.8 °F 79% 30.11 in 3.0 mi SW 5.8 mph - N/A   Clear
4:15 AM 10.4 °F 2.2 °F 6.8 °F 85% 30.10 in 3.0 mi SSW 4.6 mph - N/A   Clear
4:35 AM 12.2 °F 1.7 °F 8.6 °F 85% 30.12 in 3.0 mi SW 6.9 mph - N/A   Clear
4:55 AM 10.4 °F -2.4 °F 5.0 °F 79% 30.13 in 5.0 mi SW 9.2 mph - N/A   Partly Cloudy
5:15 AM 14.0 °F 1.2 °F 10.4 °F 86% 30.12 in 0.8 mi SSW 10.4 mph - N/A   Overcast
5:35 AM 15.8 °F 7.2 °F 10.4 °F 79% 30.11 in 5.0 mi SSW 5.8 mph - N/A   Scattered Clouds
5:55 AM 15.8 °F 6.1 °F 12.2 °F 86% 30.12 in 5.0 mi SSW 6.9 mph - N/A   Scattered Clouds
6:15 AM 15.8 °F 7.2 °F 12.2 °F 86% 30.12 in 1.8 mi SW 5.8 mph - N/A   Overcast
6:35 AM 17.6 °F 9.3 °F 12.2 °F 79% 30.12 in 2.5 mi SSW 5.8 mph - N/A   Partly Cloudy
6:55 AM 17.6 °F 8.2 °F 12.2 °F 79% 30.11 in 4.0 mi SSW 6.9 mph - N/A   Clear
7:15 AM 17.6 °F 7.3 °F 14.0 °F 86% 30.11 in 3.0 mi South 8.1 mph - N/A   Mostly Cloudy
7:35 AM 17.6 °F 6.4 °F 14.0 °F 86% 30.11 in 3.0 mi SSW 9.2 mph - N/A   Overcast
7:55 AM 19.4 °F 8.6 °F 15.8 °F 86% 30.10 in 4.0 mi South 9.2 mph - N/A   Mostly Cloudy
8:15 AM 21.2 °F 10.9 °F 17.6 °F 86% 30.11 in 5.0 mi South 9.2 mph - N/A   Scattered Clouds
8:35 AM 21.2 °F 8.3 °F 17.6 °F 86% 30.10 in 5.0 mi South 13.8 mph - N/A   Clear
8:55 AM 21.2 °F 7.8 °F 17.6 °F 86% 30.09 in 5.0 mi South 15.0 mph - N/A   Clear
9:15 AM 23.0 °F 10.1 °F 19.4 °F 86% 30.10 in 7.0 mi South 15.0 mph - N/A   Clear
9:35 AM 24.8 °F 11.9 °F 21.2 °F 86% 30.09 in 10.0 mi South 16.1 mph - N/A   Clear
9:55 AM 26.6 °F 13.8 °F 21.2 °F 80% 30.07 in 10.0 mi South 17.3 mph - N/A   Scattered Clouds
10:15 AM 26.6 °F 14.3 °F 21.2 °F 80% 30.07 in 10.0 mi South 16.1 mph 26.5 mph N/A   Mostly Cloudy
10:35 AM 26.6 °F 14.3 °F 21.2 °F 80% 30.06 in 10.0 mi South 16.1 mph - N/A   Partly Cloudy
10:55 AM 28.4 °F 15.1 °F 21.2 °F 74% 30.05 in 10.0 mi South 20.7 mph - N/A   Clear
11:15 AM 30.2 °F 17.4 °F 21.2 °F 69% 30.04 in 10.0 mi South 20.7 mph 29.9 mph N/A   Clear
11:35 AM 30.2 °F 17.1 °F 21.2 °F 69% 30.02 in 9.0 mi South 21.9 mph 32.2 mph N/A   Clear
11:55 AM 30.2 °F 15.9 °F 21.2 °F 69% 30.00 in 9.0 mi South 26.5 mph 31.1 mph N/A   Clear
12:15 PM 32.0 °F 18.1 °F 23.0 °F 69% 29.99 in 7.0 mi South 27.6 mph 34.5 mph N/A   Clear
12:35 PM 32.0 °F 18.4 °F 24.8 °F 75% 29.99 in 9.0 mi South 26.5 mph 32.2 mph N/A   Clear
12:55 PM 33.8 °F 20.8 °F 24.8 °F 70% 29.98 in 9.0 mi South 26.5 mph 33.4 mph N/A   Clear
1:15 PM 33.8 °F 21.0 °F 24.8 °F 70% 29.97 in 10.0 mi South 25.3 mph 33.4 mph N/A   Clear
1:35 PM 33.8 °F 20.5 °F 26.6 °F 75% 29.95 in 10.0 mi South 27.6 mph 35.7 mph N/A   Clear
1:55 PM 35.6 °F 23.2 °F 26.6 °F 70% 29.94 in 10.0 mi South 26.5 mph 35.7 mph N/A   Clear
2:15 PM 35.6 °F 23.0 °F 26.6 °F 70% 29.93 in 10.0 mi South 27.6 mph 33.4 mph N/A   Clear
2:35 PM 35.6 °F 23.7 °F 26.6 °F 70% 29.93 in 10.0 mi South 24.2 mph - N/A   Clear
2:55 PM 35.6 °F 24.5 °F 26.6 °F 70% 29.92 in 10.0 mi SSE 20.7 mph - N/A   Clear
3:15 PM 37.4 °F 26.9 °F 28.4 °F 70% 29.91 in 10.0 mi SSE 20.7 mph - N/A   Clear
3:35 PM 37.4 °F 27.2 °F 28.4 °F 70% 29.90 in 10.0 mi SSE 19.6 mph 25.3 mph N/A   Clear
3:55 PM 37.4 °F 27.2 °F 28.4 °F 70% 29.89 in 10.0 mi SSE 19.6 mph 24.2 mph N/A   Clear
4:15 PM 37.4 °F 28.2 °F 28.4 °F 70% 29.88 in 10.0 mi SSE 16.1 mph - N/A   Clear
4:35 PM 37.4 °F 27.5 °F 28.4 °F 70% 29.86 in 10.0 mi SSE 18.4 mph - N/A   Clear
4:55 PM 37.4 °F 28.2 °F 28.4 °F 70% 29.87 in 10.0 mi SSE 16.1 mph - N/A   Clear
5:15 PM 37.4 °F 28.9 °F 28.4 °F 70% 29.87 in 10.0 mi SSE 13.8 mph - N/A   Clear
5:35 PM 37.4 °F 28.9 °F 28.4 °F 70% 29.86 in 10.0 mi SSE 13.8 mph - N/A   Clear
5:55 PM 37.4 °F 29.3 °F 28.4 °F 70% 29.86 in 10.0 mi South 12.7 mph - N/A   Clear
6:15 PM 37.4 °F 28.2 °F 26.6 °F 65% 29.85 in 10.0 mi South 16.1 mph - N/A   Clear
6:35 PM 37.4 °F 28.2 °F 26.6 °F 65% 29.85 in 10.0 mi South 16.1 mph - N/A   Clear
6:55 PM 37.4 °F 27.8 °F 26.6 °F 65% 29.84 in 10.0 mi South 17.3 mph - N/A   Clear
7:15 PM 37.4 °F 28.2 °F 26.6 °F 65% 29.83 in 10.0 mi South 16.1 mph - N/A   Clear
7:35 PM 37.4 °F 27.8 °F 26.6 °F 65% 29.83 in 10.0 mi SSE 17.3 mph - N/A   Clear
7:55 PM 37.4 °F 27.5 °F 26.6 °F 65% 29.82 in 10.0 mi South 18.4 mph - N/A   Clear
8:15 PM 37.4 °F 27.5 °F 26.6 °F 65% 29.81 in 10.0 mi South 18.4 mph - N/A   Clear
8:35 PM 37.4 °F 27.2 °F 26.6 °F 65% 29.82 in 10.0 mi South 19.6 mph 23.0 mph N/A   Clear
8:55 PM 37.4 °F 28.2 °F 26.6 °F 65% 29.82 in 10.0 mi SSE 16.1 mph 21.9 mph N/A   Clear
9:15 PM 35.6 °F 26.6 °F 26.6 °F 70% 29.82 in 10.0 mi SSE 13.8 mph - N/A   Clear
9:35 PM 35.6 °F 26.6 °F 26.6 °F 70% 29.82 in 10.0 mi SSE 13.8 mph - N/A   Clear
9:55 PM 35.6 °F 26.6 °F 26.6 °F 70% 29.81 in 10.0 mi SSE 13.8 mph - N/A   Clear
10:15 PM 35.6 °F 26.2 °F 26.6 °F 70% 29.80 in 10.0 mi SSE 15.0 mph - N/A   Clear
10:35 PM 35.6 °F 25.9 °F 26.6 °F 70% 29.79 in 10.0 mi South 16.1 mph - N/A   Clear
10:55 PM 35.6 °F 25.9 °F 24.8 °F 65% 29.78 in 10.0 mi South 16.1 mph - N/A   Clear
11:15 PM 35.6 °F 26.2 °F 24.8 °F 65% 29.77 in 10.0 mi South 15.0 mph - N/A   Clear
11:35 PM 35.6 °F 26.2 °F 24.8 °F 65% 29.76 in 10.0 mi South 15.0 mph - N/A   Clear
11:55 PM 35.6 °F 26.2 °F 24.8 °F 65% 29.75 in 10.0 mi South 15.0 mph - N/A   Clear